createdAt,value
2022-09-02T00:02:09.573Z,1020.1
2022-09-02T00:07:02.093Z,1020.08
2022-09-02T00:11:54.705Z,1020.09
2022-09-02T00:16:47.478Z,1020.07
2022-09-02T00:21:40.088Z,1020.01
2022-09-02T00:26:32.669Z,1020.03
2022-09-02T00:31:25.284Z,1020.01
2022-09-02T00:41:10.627Z,1020
2022-09-02T00:50:55.986Z,1019.91
2022-09-02T00:55:48.605Z,1019.98
2022-09-02T01:00:41.342Z,1019.99
2022-09-02T01:10:26.386Z,1019.89
2022-09-02T01:15:19.197Z,1019.84
2022-09-02T01:20:11.902Z,1019.87
2022-09-02T01:25:04.526Z,1019.88
2022-09-02T01:29:57.115Z,1019.8
2022-09-02T01:34:49.800Z,1019.75
2022-09-02T01:39:42.218Z,1019.77
2022-09-02T01:44:35.241Z,1019.74
2022-09-02T01:49:27.746Z,1019.72
2022-09-02T01:54:20.593Z,1019.72
2022-09-02T01:59:12.894Z,1019.61
2022-09-02T02:04:06.842Z,1019.57
2022-09-02T02:08:58.195Z,1019.57
2022-09-02T02:13:50.847Z,1019.53
2022-09-02T02:18:43.668Z,1019.51
2022-09-02T02:23:36.416Z,1019.49
2022-09-02T02:28:28.961Z,1019.46
2022-09-02T02:33:21.859Z,1019.5
2022-09-02T02:38:15.579Z,1019.54
2022-09-02T02:43:07.049Z,1019.5
2022-09-02T02:47:59.550Z,1019.48
2022-09-02T02:52:52.068Z,1019.45
2022-09-02T02:57:44.697Z,1019.43
2022-09-02T03:02:37.526Z,1019.39
2022-09-02T03:07:30.057Z,1019.42
2022-09-02T03:12:22.748Z,1019.45
2022-09-02T03:17:15.491Z,1019.41
2022-09-02T03:22:08.143Z,1019.43
2022-09-02T03:27:00.806Z,1019.43
2022-09-02T03:31:53.428Z,1019.45
2022-09-02T03:36:46.106Z,1019.43
2022-09-02T03:41:38.576Z,1019.41
2022-09-02T03:46:31.562Z,1019.37
2022-09-02T03:51:24.091Z,1019.33
2022-09-02T03:56:16.390Z,1019.34
2022-09-02T04:01:09.037Z,1019.35
2022-09-02T04:06:01.644Z,1019.39
2022-09-02T04:10:54.551Z,1019.47
2022-09-02T04:15:47.240Z,1019.43
2022-09-02T04:20:39.952Z,1019.45
2022-09-02T04:25:32.753Z,1019.46
2022-09-02T04:30:25.404Z,1019.4
2022-09-02T04:35:18.156Z,1019.42
2022-09-02T04:40:10.971Z,1019.43
2022-09-02T04:45:03.528Z,1019.45
2022-09-02T04:49:55.610Z,1019.51
2022-09-02T04:54:47.967Z,1019.51
2022-09-02T04:59:40.409Z,1019.56
2022-09-02T05:04:32.848Z,1019.55
2022-09-02T05:09:25.345Z,1019.51
2022-09-02T05:14:17.724Z,1019.57
2022-09-02T05:19:10.471Z,1019.65
2022-09-02T05:24:02.875Z,1019.63
2022-09-02T05:28:55.377Z,1019.67
2022-09-02T05:33:48.089Z,1019.64
2022-09-02T05:38:39.852Z,1019.68
2022-09-02T05:43:32.786Z,1019.59
2022-09-02T05:48:25.567Z,1019.61
2022-09-02T05:53:17.821Z,1019.64
2022-09-02T05:58:09.940Z,1019.68
2022-09-02T06:03:02.959Z,1019.65
2022-09-02T06:07:55.417Z,1019.6
2022-09-02T06:12:47.897Z,1019.59
2022-09-02T06:17:40.243Z,1019.64
2022-09-02T06:27:26.260Z,1019.57
2022-09-02T06:37:11.114Z,1019.68
2022-09-02T06:42:02.872Z,1019.65
2022-09-02T06:46:56.928Z,1019.55
2022-09-02T06:51:49.511Z,1019.66
2022-09-02T06:56:43.880Z,1019.78
2022-09-02T07:01:34.608Z,1019.77
2022-09-02T07:06:28.183Z,1019.63
2022-09-02T07:11:20.196Z,1019.65
2022-09-02T07:16:18.426Z,1019.69
2022-09-02T07:21:05.372Z,1019.79
2022-09-02T07:25:58.843Z,1019.72
2022-09-02T07:30:53.643Z,1019.58
2022-09-02T07:35:44.385Z,1019.63
2022-09-02T07:40:36.459Z,1019.62
2022-09-02T07:45:29.048Z,1019.54
2022-09-02T07:50:22.325Z,1019.61
2022-09-02T07:55:15.154Z,1019.58
2022-09-02T08:00:07.042Z,1019.6
2022-09-02T08:05:00.176Z,1019.49
2022-09-02T08:09:51.779Z,1019.51
2022-09-02T08:14:44.586Z,1019.46
2022-09-02T08:19:37.352Z,1019.48
2022-09-02T08:24:29.764Z,1019.51
2022-09-02T08:29:22.625Z,1019.43
2022-09-02T08:34:16.029Z,1019.37
2022-09-02T08:39:08.457Z,1019.39
2022-09-02T08:44:01.013Z,1019.36
2022-09-02T08:48:53.815Z,1019.36
2022-09-02T08:53:46.787Z,1019.27
2022-09-02T08:58:39.746Z,1019.21
2022-09-02T09:03:32.324Z,1019.12
2022-09-02T09:08:25.330Z,1019.11
2022-09-02T09:13:17.746Z,1019.05
2022-09-02T09:18:10.711Z,1018.98
2022-09-02T09:23:02.957Z,1018.88
2022-09-02T09:27:55.586Z,1018.75
2022-09-02T09:32:48.275Z,1018.82
2022-09-02T09:37:40.650Z,1018.84
2022-09-02T09:42:33.064Z,1018.75
2022-09-02T09:47:25.350Z,1018.63
2022-09-02T09:52:13.263Z,1018.6
2022-09-02T09:57:05.879Z,1018.52
2022-09-02T10:01:59.727Z,1018.55
2022-09-02T10:06:52.275Z,1018.5
2022-09-02T10:11:44.741Z,1018.51
2022-09-02T10:16:37.573Z,1018.44
2022-09-02T10:21:25.432Z,1018.38
2022-09-02T10:26:17.829Z,1018.39
2022-09-02T10:31:11.723Z,1018.3
2022-09-02T10:36:04.682Z,1018.18
2022-09-02T10:40:57.779Z,1018.14
2022-09-02T10:45:50.456Z,1018.11
2022-09-02T10:50:44.604Z,1018.05
2022-09-02T10:55:35.788Z,1018.03
2022-09-02T11:00:28.372Z,1017.97
2022-09-02T11:05:20.623Z,1017.91
2022-09-02T11:10:13.429Z,1017.87
2022-09-02T11:15:05.845Z,1017.75
2022-09-02T11:19:58.451Z,1017.71
2022-09-02T11:24:51.263Z,1017.68
2022-09-02T11:29:43.928Z,1017.68
2022-09-02T11:34:36.739Z,1017.6
2022-09-02T11:39:36.363Z,1017.6
2022-09-02T11:44:22.237Z,1017.64
2022-09-02T11:49:15.058Z,1017.54
2022-09-02T11:54:07.720Z,1017.6
2022-09-02T11:59:00.367Z,1017.52
2022-09-02T12:04:27.413Z,1017.5
2022-09-02T12:08:46.111Z,1017.49
2022-09-02T12:13:38.899Z,1017.42
2022-09-02T12:18:31.558Z,1017.41
2022-09-02T12:23:24.428Z,1017.35
2022-09-02T12:28:18.831Z,1017.28
2022-09-02T12:33:09.984Z,1017.3
2022-09-02T12:38:02.595Z,1017.28
2022-09-02T12:42:55.336Z,1017.19
2022-09-02T12:47:47.869Z,1017.22
2022-09-02T12:52:40.487Z,1017.16
2022-09-02T12:57:33.095Z,1017.07
2022-09-02T13:02:26.828Z,1017.01
2022-09-02T13:07:18.254Z,1017.03
2022-09-02T13:12:10.837Z,1016.98
2022-09-02T13:17:13.811Z,1016.95
2022-09-02T13:21:56.237Z,1016.89
2022-09-02T13:31:41.031Z,1016.8
2022-09-02T13:41:26.506Z,1016.72
2022-09-02T13:51:12.155Z,1016.73
2022-09-02T14:01:01.838Z,1016.64
2022-09-02T14:05:49.898Z,1016.6
2022-09-02T14:10:42.638Z,1016.56
2022-09-02T14:15:35.695Z,1016.5
2022-09-02T14:20:28.224Z,1016.51
2022-09-02T14:25:24.218Z,1016.46
2022-09-02T14:30:13.651Z,1016.44
2022-09-02T14:35:05.934Z,1016.39
2022-09-02T14:39:58.882Z,1016.35
2022-09-02T14:44:51.428Z,1016.39
2022-09-02T14:49:44.124Z,1016.34
2022-09-02T14:54:36.416Z,1016.25
2022-09-02T14:59:29.028Z,1016.23
2022-09-02T15:04:21.816Z,1016.17
2022-09-02T15:09:16.441Z,1016.19
2022-09-02T15:14:07.161Z,1016.21
2022-09-02T15:18:59.824Z,1016.21
2022-09-02T15:23:52.543Z,1016.14
2022-09-02T15:28:45.244Z,1016.11
2022-09-02T15:33:37.940Z,1016.11
2022-09-02T15:38:30.638Z,1016.16
2022-09-02T15:43:23.481Z,1016.1
2022-09-02T15:48:15.899Z,1016.05
2022-09-02T15:53:08.418Z,1016.02
2022-09-02T15:58:00.938Z,1016.03
2022-09-02T16:02:53.556Z,1016.02
2022-09-02T16:07:46.408Z,1016.03
2022-09-02T16:12:39.167Z,1016
2022-09-02T16:17:32.030Z,1015.88
2022-09-02T16:22:24.705Z,1015.82
2022-09-02T16:27:17.343Z,1015.82
2022-09-02T16:32:26.877Z,1015.81
2022-09-02T16:37:02.863Z,1015.77
2022-09-02T16:41:55.405Z,1015.75
2022-09-02T16:46:48.047Z,1015.67
2022-09-02T16:51:40.568Z,1015.65
2022-09-02T16:56:33.299Z,1015.62
2022-09-02T17:01:32.022Z,1015.6
2022-09-02T17:06:18.893Z,1015.64
2022-09-02T17:11:11.468Z,1015.58
2022-09-02T17:16:03.822Z,1015.59
2022-09-02T17:20:56.410Z,1015.59
2022-09-02T17:25:49.145Z,1015.6
2022-09-02T17:30:41.964Z,1015.59
2022-09-02T17:35:34.392Z,1015.65
2022-09-02T17:40:27.088Z,1015.63
2022-09-02T17:45:19.888Z,1015.66
2022-09-02T17:50:15.981Z,1015.64
2022-09-02T17:55:05.004Z,1015.64
2022-09-02T17:59:57.555Z,1015.7
2022-09-02T18:04:50.394Z,1015.73
2022-09-02T18:09:42.490Z,1015.73
2022-09-02T18:14:34.983Z,1015.68
2022-09-02T18:19:27.547Z,1015.76
2022-09-02T18:24:20.280Z,1015.81
2022-09-02T18:29:12.596Z,1015.89
2022-09-02T18:34:05.239Z,1015.85
2022-09-02T18:38:57.889Z,1015.91
2022-09-02T18:43:50.706Z,1015.91
2022-09-02T18:48:43.385Z,1015.96
2022-09-02T18:53:38.062Z,1016.03
2022-09-02T18:58:30.237Z,1016.02
2022-09-02T19:03:22.826Z,1016.09
2022-09-02T19:08:15.560Z,1016.06
2022-09-02T19:13:08.162Z,1016.12
2022-09-02T19:18:00.841Z,1016.15
2022-09-02T19:27:46.021Z,1016.2
2022-09-02T19:37:31.117Z,1016.23
2022-09-02T19:42:24.055Z,1016.3
2022-09-02T19:52:09.377Z,1016.33
2022-09-02T19:57:02.688Z,1016.27
2022-09-02T20:01:54.932Z,1016.36
2022-09-02T20:06:47.715Z,1016.42
2022-09-02T20:11:41.109Z,1016.41
2022-09-02T20:16:33.293Z,1016.4
2022-09-02T20:21:25.928Z,1016.38
2022-09-02T20:26:18.417Z,1016.4
2022-09-02T20:31:11.175Z,1016.34
2022-09-02T20:36:03.914Z,1016.4
2022-09-02T20:40:56.538Z,1016.46
2022-09-02T20:45:49.111Z,1016.46
2022-09-02T20:50:41.964Z,1016.53
2022-09-02T20:55:34.747Z,1016.5
2022-09-02T21:00:27.597Z,1016.59
2022-09-02T21:05:22.769Z,1016.59
2022-09-02T21:10:12.821Z,1016.61
2022-09-02T21:15:05.688Z,1016.62
2022-09-02T21:19:58.173Z,1016.59
2022-09-02T21:24:51.004Z,1016.59
2022-09-02T21:29:43.709Z,1016.57
2022-09-02T21:34:36.283Z,1016.57
2022-09-02T21:39:28.908Z,1016.55
2022-09-02T21:44:21.554Z,1016.51
2022-09-02T21:49:14.067Z,1016.53
2022-09-02T21:54:06.874Z,1016.48
2022-09-02T21:58:59.562Z,1016.38
2022-09-02T22:03:52.138Z,1016.33
2022-09-02T22:08:44.758Z,1016.25
2022-09-02T22:13:37.405Z,1016.27
2022-09-02T22:18:30.101Z,1016.24
2022-09-02T22:23:22.863Z,1016.29
2022-09-02T22:28:15.615Z,1016.37
2022-09-02T22:33:08.127Z,1016.31
2022-09-02T22:38:00.826Z,1016.28
2022-09-02T22:42:53.338Z,1016.33
2022-09-02T22:47:46.394Z,1016.3
2022-09-02T22:52:38.968Z,1016.33
2022-09-02T22:57:31.745Z,1016.38
2022-09-02T23:02:24.684Z,1016.35
2022-09-02T23:07:17.148Z,1016.35
2022-09-02T23:12:09.731Z,1016.35
2022-09-02T23:17:02.363Z,1016.3
2022-09-02T23:21:54.870Z,1016.28
2022-09-02T23:26:47.550Z,1016.23
2022-09-02T23:31:40.194Z,1016.22
2022-09-02T23:36:32.767Z,1016.17
2022-09-02T23:41:25.362Z,1016.1
2022-09-02T23:46:18.197Z,1015.95
2022-09-02T23:51:10.755Z,1015.89
2022-09-02T23:56:03.535Z,1015.84
